sensor_id;sensor_type;location;lat;lon;timestamp;temperature;humidity
5621;DHT22;2832;50.864;12.186;2022-07-23T00:00:28;27.50;85.40
5621;DHT22;2832;50.864;12.186;2022-07-23T00:02:57;27.40;85.40
5621;DHT22;2832;50.864;12.186;2022-07-23T00:05:25;27.40;85.30
5621;DHT22;2832;50.864;12.186;2022-07-23T00:07:52;27.40;85.50
5621;DHT22;2832;50.864;12.186;2022-07-23T00:10:20;27.40;85.40
5621;DHT22;2832;50.864;12.186;2022-07-23T00:12:48;27.40;85.30
5621;DHT22;2832;50.864;12.186;2022-07-23T00:15:16;27.40;85.30
5621;DHT22;2832;50.864;12.186;2022-07-23T00:17:45;27.40;85.30
5621;DHT22;2832;50.864;12.186;2022-07-23T00:20:14;27.40;85.20
5621;DHT22;2832;50.864;12.186;2022-07-23T00:22:46;27.40;85.30
5621;DHT22;2832;50.864;12.186;2022-07-23T00:25:14;27.40;85.30
5621;DHT22;2832;50.864;12.186;2022-07-23T00:27:42;27.40;85.30
5621;DHT22;2832;50.864;12.186;2022-07-23T00:30:11;27.30;85.30
5621;DHT22;2832;50.864;12.186;2022-07-23T00:32:48;27.30;85.30
5621;DHT22;2832;50.864;12.186;2022-07-23T00:35:18;27.30;85.30
5621;DHT22;2832;50.864;12.186;2022-07-23T00:37:46;27.30;85.30
5621;DHT22;2832;50.864;12.186;2022-07-23T00:40:15;27.30;85.30
5621;DHT22;2832;50.864;12.186;2022-07-23T00:42:43;27.30;85.20
5621;DHT22;2832;50.864;12.186;2022-07-23T00:45:10;27.20;85.00
5621;DHT22;2832;50.864;12.186;2022-07-23T00:47:39;27.20;85.10
5621;DHT22;2832;50.864;12.186;2022-07-23T00:50:09;27.20;85.20
5621;DHT22;2832;50.864;12.186;2022-07-23T00:52:38;27.20;85.10
5621;DHT22;2832;50.864;12.186;2022-07-23T00:55:07;27.20;85.20
5621;DHT22;2832;50.864;12.186;2022-07-23T00:57:36;27.20;85.20
5621;DHT22;2832;50.864;12.186;2022-07-23T01:00:04;27.20;85.30
5621;DHT22;2832;50.864;12.186;2022-07-23T01:02:33;27.20;85.30
5621;DHT22;2832;50.864;12.186;2022-07-23T01:05:01;27.20;85.10
5621;DHT22;2832;50.864;12.186;2022-07-23T01:07:30;27.10;85.10
5621;DHT22;2832;50.864;12.186;2022-07-23T01:10:01;27.10;85.10
5621;DHT22;2832;50.864;12.186;2022-07-23T01:12:29;27.10;85.10
5621;DHT22;2832;50.864;12.186;2022-07-23T01:14:57;27.10;85.00
5621;DHT22;2832;50.864;12.186;2022-07-23T01:17:25;27.10;85.00
5621;DHT22;2832;50.864;12.186;2022-07-23T01:19:53;27.10;85.00
5621;DHT22;2832;50.864;12.186;2022-07-23T01:22:21;27.10;85.10
5621;DHT22;2832;50.864;12.186;2022-07-23T01:24:50;27.10;85.20
5621;DHT22;2832;50.864;12.186;2022-07-23T01:27:17;27.00;85.20
5621;DHT22;2832;50.864;12.186;2022-07-23T01:29:45;27.00;85.10
5621;DHT22;2832;50.864;12.186;2022-07-23T01:32:13;27.00;85.10
5621;DHT22;2832;50.864;12.186;2022-07-23T01:34:41;27.00;85.20
5621;DHT22;2832;50.864;12.186;2022-07-23T01:37:09;27.00;85.00
5621;DHT22;2832;50.864;12.186;2022-07-23T01:39:37;27.00;85.10
5621;DHT22;2832;50.864;12.186;2022-07-23T01:42:06;27.00;85.10
5621;DHT22;2832;50.864;12.186;2022-07-23T01:44:33;27.00;85.20
5621;DHT22;2832;50.864;12.186;2022-07-23T01:47:02;27.00;85.20
5621;DHT22;2832;50.864;12.186;2022-07-23T01:49:29;27.00;85.20
5621;DHT22;2832;50.864;12.186;2022-07-23T01:51:57;27.00;85.30
5621;DHT22;2832;50.864;12.186;2022-07-23T01:54:29;27.00;85.30
5621;DHT22;2832;50.864;12.186;2022-07-23T01:56:57;26.90;85.10
5621;DHT22;2832;50.864;12.186;2022-07-23T01:59:27;26.90;85.20
5621;DHT22;2832;50.864;12.186;2022-07-23T02:01:55;26.90;85.30
5621;DHT22;2832;50.864;12.186;2022-07-23T02:04:24;26.90;85.40
5621;DHT22;2832;50.864;12.186;2022-07-23T02:06:53;26.90;85.30
5621;DHT22;2832;50.864;12.186;2022-07-23T02:09:21;26.90;85.30
5621;DHT22;2832;50.864;12.186;2022-07-23T02:11:49;26.90;85.40
5621;DHT22;2832;50.864;12.186;2022-07-23T02:14:16;27.00;85.50
5621;DHT22;2832;50.864;12.186;2022-07-23T02:16:46;26.90;85.10
5621;DHT22;2832;50.864;12.186;2022-07-23T02:19:14;26.90;85.20
5621;DHT22;2832;50.864;12.186;2022-07-23T02:21:43;26.90;85.30
5621;DHT22;2832;50.864;12.186;2022-07-23T02:24:10;26.90;85.50
5621;DHT22;2832;50.864;12.186;2022-07-23T02:26:38;26.90;85.40
5621;DHT22;2832;50.864;12.186;2022-07-23T02:29:07;26.90;85.30
5621;DHT22;2832;50.864;12.186;2022-07-23T02:31:34;26.90;85.30
5621;DHT22;2832;50.864;12.186;2022-07-23T02:34:04;26.80;85.40
5621;DHT22;2832;50.864;12.186;2022-07-23T02:36:33;26.80;85.50
5621;DHT22;2832;50.864;12.186;2022-07-23T02:39:01;26.80;85.50
5621;DHT22;2832;50.864;12.186;2022-07-23T02:41:29;26.80;85.40
5621;DHT22;2832;50.864;12.186;2022-07-23T02:43:57;26.80;85.20
5621;DHT22;2832;50.864;12.186;2022-07-23T02:46:25;26.80;85.30
5621;DHT22;2832;50.864;12.186;2022-07-23T02:48:53;26.80;85.10
5621;DHT22;2832;50.864;12.186;2022-07-23T02:51:22;26.80;85.10
5621;DHT22;2832;50.864;12.186;2022-07-23T02:53:50;26.70;85.10
5621;DHT22;2832;50.864;12.186;2022-07-23T02:56:18;26.70;85.30
5621;DHT22;2832;50.864;12.186;2022-07-23T02:58:46;26.60;85.50
5621;DHT22;2832;50.864;12.186;2022-07-23T03:01:13;26.60;85.70
5621;DHT22;2832;50.864;12.186;2022-07-23T03:03:41;26.60;85.80
5621;DHT22;2832;50.864;12.186;2022-07-23T03:06:11;26.60;85.90
5621;DHT22;2832;50.864;12.186;2022-07-23T03:08:41;26.60;85.50
5621;DHT22;2832;50.864;12.186;2022-07-23T03:11:08;26.60;85.50
5621;DHT22;2832;50.864;12.186;2022-07-23T03:13:37;26.70;85.70
5621;DHT22;2832;50.864;12.186;2022-07-23T03:16:06;26.70;85.60
5621;DHT22;2832;50.864;12.186;2022-07-23T03:18:34;26.60;85.60
5621;DHT22;2832;50.864;12.186;2022-07-23T03:21:02;26.60;85.70
5621;DHT22;2832;50.864;12.186;2022-07-23T03:23:30;26.70;85.60
5621;DHT22;2832;50.864;12.186;2022-07-23T03:26:00;26.70;85.50
5621;DHT22;2832;50.864;12.186;2022-07-23T03:28:27;26.60;85.40
5621;DHT22;2832;50.864;12.186;2022-07-23T03:30:55;26.60;85.50
5621;DHT22;2832;50.864;12.186;2022-07-23T03:33:23;26.60;85.60
5621;DHT22;2832;50.864;12.186;2022-07-23T03:35:51;26.60;85.60
5621;DHT22;2832;50.864;12.186;2022-07-23T03:38:18;26.60;85.60
5621;DHT22;2832;50.864;12.186;2022-07-23T03:40:46;26.60;85.60
5621;DHT22;2832;50.864;12.186;2022-07-23T03:43:15;26.60;85.60
5621;DHT22;2832;50.864;12.186;2022-07-23T03:45:43;26.60;85.60
5621;DHT22;2832;50.864;12.186;2022-07-23T03:48:11;26.60;85.60
5621;DHT22;2832;50.864;12.186;2022-07-23T03:50:39;26.60;85.70
5621;DHT22;2832;50.864;12.186;2022-07-23T03:53:07;26.60;85.70
5621;DHT22;2832;50.864;12.186;2022-07-23T03:55:35;26.50;85.50
5621;DHT22;2832;50.864;12.186;2022-07-23T03:58:03;26.50;85.40
5621;DHT22;2832;50.864;12.186;2022-07-23T04:00:32;26.40;85.40
5621;DHT22;2832;50.864;12.186;2022-07-23T04:03:00;26.30;85.70
5621;DHT22;2832;50.864;12.186;2022-07-23T04:05:28;26.30;85.80
5621;DHT22;2832;50.864;12.186;2022-07-23T04:07:57;26.20;85.70
5621;DHT22;2832;50.864;12.186;2022-07-23T04:10:25;26.20;85.60
5621;DHT22;2832;50.864;12.186;2022-07-23T04:12:52;26.10;85.50
5621;DHT22;2832;50.864;12.186;2022-07-23T04:15:21;26.10;85.80
5621;DHT22;2832;50.864;12.186;2022-07-23T04:17:50;25.90;85.30
5621;DHT22;2832;50.864;12.186;2022-07-23T04:20:18;25.90;86.30
5621;DHT22;2832;50.864;12.186;2022-07-23T04:22:46;25.90;85.90
5621;DHT22;2832;50.864;12.186;2022-07-23T04:25:14;25.80;86.30
5621;DHT22;2832;50.864;12.186;2022-07-23T04:27:43;25.90;86.60
5621;DHT22;2832;50.864;12.186;2022-07-23T04:30:11;26.00;86.40
5621;DHT22;2832;50.864;12.186;2022-07-23T04:32:39;26.10;86.20
5621;DHT22;2832;50.864;12.186;2022-07-23T04:35:08;26.10;86.00
5621;DHT22;2832;50.864;12.186;2022-07-23T04:37:36;26.10;86.10
5621;DHT22;2832;50.864;12.186;2022-07-23T04:40:05;26.10;85.80
5621;DHT22;2832;50.864;12.186;2022-07-23T04:42:33;26.10;85.30
5621;DHT22;2832;50.864;12.186;2022-07-23T04:45:02;26.00;85.50
5621;DHT22;2832;50.864;12.186;2022-07-23T04:47:30;26.00;85.70
5621;DHT22;2832;50.864;12.186;2022-07-23T04:49:58;26.00;85.10
5621;DHT22;2832;50.864;12.186;2022-07-23T04:52:27;26.10;85.20
5621;DHT22;2832;50.864;12.186;2022-07-23T04:54:55;26.00;84.90
5621;DHT22;2832;50.864;12.186;2022-07-23T04:57:23;26.00;85.00
5621;DHT22;2832;50.864;12.186;2022-07-23T04:59:51;26.10;85.10
5621;DHT22;2832;50.864;12.186;2022-07-23T05:02:20;26.10;84.70
5621;DHT22;2832;50.864;12.186;2022-07-23T05:04:47;26.10;84.70
5621;DHT22;2832;50.864;12.186;2022-07-23T05:07:15;26.00;84.30
5621;DHT22;2832;50.864;12.186;2022-07-23T05:09:44;26.00;84.20
5621;DHT22;2832;50.864;12.186;2022-07-23T05:12:12;25.90;83.90
5621;DHT22;2832;50.864;12.186;2022-07-23T05:14:40;25.80;84.70
5621;DHT22;2832;50.864;12.186;2022-07-23T05:17:08;25.70;83.70
5621;DHT22;2832;50.864;12.186;2022-07-23T05:19:36;25.60;83.30
5621;DHT22;2832;50.864;12.186;2022-07-23T05:22:04;25.50;83.30
5621;DHT22;2832;50.864;12.186;2022-07-23T05:24:32;25.30;83.40
5621;DHT22;2832;50.864;12.186;2022-07-23T05:27:01;25.20;83.50
5621;DHT22;2832;50.864;12.186;2022-07-23T05:29:28;25.20;83.70
5621;DHT22;2832;50.864;12.186;2022-07-23T05:31:56;25.20;83.70
5621;DHT22;2832;50.864;12.186;2022-07-23T05:34:24;25.20;83.80
5621;DHT22;2832;50.864;12.186;2022-07-23T05:36:52;25.20;83.70
5621;DHT22;2832;50.864;12.186;2022-07-23T05:39:20;25.10;83.40
5621;DHT22;2832;50.864;12.186;2022-07-23T05:41:49;25.10;83.30
5621;DHT22;2832;50.864;12.186;2022-07-23T05:44:18;25.00;83.50
5621;DHT22;2832;50.864;12.186;2022-07-23T05:46:47;24.90;83.40
5621;DHT22;2832;50.864;12.186;2022-07-23T05:49:15;24.80;83.60
5621;DHT22;2832;50.864;12.186;2022-07-23T05:51:43;24.80;83.80
5621;DHT22;2832;50.864;12.186;2022-07-23T05:54:11;24.80;83.80
5621;DHT22;2832;50.864;12.186;2022-07-23T05:56:39;24.80;83.90
5621;DHT22;2832;50.864;12.186;2022-07-23T05:59:07;24.70;83.90
5621;DHT22;2832;50.864;12.186;2022-07-23T06:01:37;24.60;84.20
5621;DHT22;2832;50.864;12.186;2022-07-23T06:04:05;24.50;84.40
5621;DHT22;2832;50.864;12.186;2022-07-23T06:06:33;24.30;85.00
5621;DHT22;2832;50.864;12.186;2022-07-23T06:09:02;24.30;85.30
5621;DHT22;2832;50.864;12.186;2022-07-23T06:11:30;24.30;85.30
5621;DHT22;2832;50.864;12.186;2022-07-23T06:13:58;24.30;85.40
5621;DHT22;2832;50.864;12.186;2022-07-23T06:16:28;24.30;85.60
5621;DHT22;2832;50.864;12.186;2022-07-23T06:19:00;24.30;85.60
5621;DHT22;2832;50.864;12.186;2022-07-23T06:21:27;24.40;85.70
5621;DHT22;2832;50.864;12.186;2022-07-23T06:23:55;24.50;85.70
5621;DHT22;2832;50.864;12.186;2022-07-23T06:26:23;24.30;86.10
5621;DHT22;2832;50.864;12.186;2022-07-23T06:28:51;24.30;86.20
5621;DHT22;2832;50.864;12.186;2022-07-23T06:31:19;24.40;86.50
5621;DHT22;2832;50.864;12.186;2022-07-23T06:33:47;24.40;86.40
5621;DHT22;2832;50.864;12.186;2022-07-23T06:36:16;24.30;86.40
5621;DHT22;2832;50.864;12.186;2022-07-23T06:38:44;24.30;86.60
5621;DHT22;2832;50.864;12.186;2022-07-23T06:41:12;24.40;86.60
5621;DHT22;2832;50.864;12.186;2022-07-23T06:43:40;24.50;86.60
5621;DHT22;2832;50.864;12.186;2022-07-23T06:46:07;24.50;86.50
5621;DHT22;2832;50.864;12.186;2022-07-23T06:48:35;24.20;87.60
5621;DHT22;2832;50.864;12.186;2022-07-23T06:51:04;24.20;87.10
5621;DHT22;2832;50.864;12.186;2022-07-23T06:53:33;24.30;87.40
5621;DHT22;2832;50.864;12.186;2022-07-23T06:56:00;24.30;87.60
5621;DHT22;2832;50.864;12.186;2022-07-23T06:58:28;24.40;88.10
5621;DHT22;2832;50.864;12.186;2022-07-23T07:00:56;24.40;88.50
5621;DHT22;2832;50.864;12.186;2022-07-23T07:03:24;24.50;90.00
5621;DHT22;2832;50.864;12.186;2022-07-23T07:05:52;24.50;90.20
5621;DHT22;2832;50.864;12.186;2022-07-23T07:08:20;24.50;89.70
5621;DHT22;2832;50.864;12.186;2022-07-23T07:10:49;24.60;90.00
5621;DHT22;2832;50.864;12.186;2022-07-23T07:13:17;24.60;90.10
5621;DHT22;2832;50.864;12.186;2022-07-23T07:15:45;24.70;89.90
5621;DHT22;2832;50.864;12.186;2022-07-23T07:18:12;24.60;89.60
5621;DHT22;2832;50.864;12.186;2022-07-23T07:20:40;24.60;89.80
5621;DHT22;2832;50.864;12.186;2022-07-23T07:23:08;24.60;90.00
5621;DHT22;2832;50.864;12.186;2022-07-23T07:25:36;24.60;90.00
5621;DHT22;2832;50.864;12.186;2022-07-23T07:28:05;24.60;90.00
5621;DHT22;2832;50.864;12.186;2022-07-23T07:30:33;24.60;89.80
5621;DHT22;2832;50.864;12.186;2022-07-23T07:33:03;24.60;89.50
5621;DHT22;2832;50.864;12.186;2022-07-23T07:35:41;24.60;88.80
5621;DHT22;2832;50.864;12.186;2022-07-23T07:38:19;24.60;88.80
5621;DHT22;2832;50.864;12.186;2022-07-23T07:40:47;24.60;88.80
5621;DHT22;2832;50.864;12.186;2022-07-23T07:43:16;24.60;88.70
5621;DHT22;2832;50.864;12.186;2022-07-23T07:45:44;24.60;88.90
5621;DHT22;2832;50.864;12.186;2022-07-23T07:48:13;24.50;88.50
5621;DHT22;2832;50.864;12.186;2022-07-23T07:50:41;24.40;89.00
5621;DHT22;2832;50.864;12.186;2022-07-23T07:53:09;24.40;89.50
5621;DHT22;2832;50.864;12.186;2022-07-23T07:55:36;24.40;89.30
5621;DHT22;2832;50.864;12.186;2022-07-23T07:58:04;24.40;89.00
5621;DHT22;2832;50.864;12.186;2022-07-23T08:00:34;24.40;89.00
5621;DHT22;2832;50.864;12.186;2022-07-23T08:03:02;24.40;89.20
5621;DHT22;2832;50.864;12.186;2022-07-23T08:05:31;24.30;89.10
5621;DHT22;2832;50.864;12.186;2022-07-23T08:07:59;24.30;89.20
5621;DHT22;2832;50.864;12.186;2022-07-23T08:10:28;24.30;90.00
5621;DHT22;2832;50.864;12.186;2022-07-23T08:12:58;24.30;89.20
5621;DHT22;2832;50.864;12.186;2022-07-23T08:15:30;24.30;89.30
5621;DHT22;2832;50.864;12.186;2022-07-23T08:18:00;24.30;89.40
5621;DHT22;2832;50.864;12.186;2022-07-23T08:20:29;24.20;90.00
5621;DHT22;2832;50.864;12.186;2022-07-23T08:22:59;24.20;90.30
5621;DHT22;2832;50.864;12.186;2022-07-23T08:25:29;24.20;90.40
5621;DHT22;2832;50.864;12.186;2022-07-23T08:28:13;24.10;90.30
5621;DHT22;2832;50.864;12.186;2022-07-23T08:30:42;24.00;90.50
5621;DHT22;2832;50.864;12.186;2022-07-23T08:33:16;24.00;90.40
5621;DHT22;2832;50.864;12.186;2022-07-23T08:35:46;24.00;90.40
5621;DHT22;2832;50.864;12.186;2022-07-23T08:38:16;24.00;90.40
5621;DHT22;2832;50.864;12.186;2022-07-23T08:40:46;24.00;90.30
5621;DHT22;2832;50.864;12.186;2022-07-23T08:43:17;24.10;90.40
5621;DHT22;2832;50.864;12.186;2022-07-23T08:45:48;24.10;90.60
5621;DHT22;2832;50.864;12.186;2022-07-23T08:48:19;24.10;90.50
5621;DHT22;2832;50.864;12.186;2022-07-23T08:50:50;24.20;90.50
5621;DHT22;2832;50.864;12.186;2022-07-23T08:53:18;24.30;90.30
5621;DHT22;2832;50.864;12.186;2022-07-23T08:55:49;24.40;90.20
5621;DHT22;2832;50.864;12.186;2022-07-23T08:58:18;24.40;90.20
5621;DHT22;2832;50.864;12.186;2022-07-23T09:00:46;24.40;90.10
5621;DHT22;2832;50.864;12.186;2022-07-23T09:03:18;24.50;90.10
5621;DHT22;2832;50.864;12.186;2022-07-23T09:05:47;24.50;90.00
5621;DHT22;2832;50.864;12.186;2022-07-23T09:08:17;24.40;90.00
5621;DHT22;2832;50.864;12.186;2022-07-23T09:10:53;24.40;89.90
5621;DHT22;2832;50.864;12.186;2022-07-23T09:13:36;24.40;90.00
5621;DHT22;2832;50.864;12.186;2022-07-23T09:16:07;24.40;90.00
5621;DHT22;2832;50.864;12.186;2022-07-23T09:18:42;24.40;90.00
5621;DHT22;2832;50.864;12.186;2022-07-23T09:21:18;24.50;90.10
5621;DHT22;2832;50.864;12.186;2022-07-23T09:23:49;24.50;90.20
5621;DHT22;2832;50.864;12.186;2022-07-23T09:26:26;24.50;90.10
5621;DHT22;2832;50.864;12.186;2022-07-23T09:29:02;24.60;90.10
5621;DHT22;2832;50.864;12.186;2022-07-23T09:31:45;24.50;90.20
5621;DHT22;2832;50.864;12.186;2022-07-23T09:34:17;24.50;90.20
5621;DHT22;2832;50.864;12.186;2022-07-23T09:36:46;24.60;90.10
5621;DHT22;2832;50.864;12.186;2022-07-23T09:39:16;24.60;90.20
5621;DHT22;2832;50.864;12.186;2022-07-23T09:41:52;24.60;90.20
5621;DHT22;2832;50.864;12.186;2022-07-23T09:44:23;24.60;90.20
5621;DHT22;2832;50.864;12.186;2022-07-23T09:46:58;24.60;90.20
5621;DHT22;2832;50.864;12.186;2022-07-23T09:49:29;24.50;90.40
5621;DHT22;2832;50.864;12.186;2022-07-23T09:51:58;24.40;90.50
5621;DHT22;2832;50.864;12.186;2022-07-23T09:54:30;24.30;90.80
5621;DHT22;2832;50.864;12.186;2022-07-23T09:57:01;24.30;90.80
5621;DHT22;2832;50.864;12.186;2022-07-23T09:59:33;24.40;90.80
5621;DHT22;2832;50.864;12.186;2022-07-23T10:02:01;24.50;90.80
5621;DHT22;2832;50.864;12.186;2022-07-23T10:04:32;24.50;90.80
5621;DHT22;2832;50.864;12.186;2022-07-23T10:07:02;24.50;90.70
5621;DHT22;2832;50.864;12.186;2022-07-23T10:09:32;24.60;90.70
5621;DHT22;2832;50.864;12.186;2022-07-23T10:12:02;24.70;90.80
5621;DHT22;2832;50.864;12.186;2022-07-23T10:14:38;24.60;90.70
5621;DHT22;2832;50.864;12.186;2022-07-23T10:17:07;24.40;91.50
5621;DHT22;2832;50.864;12.186;2022-07-23T10:19:36;24.00;92.00
5621;DHT22;2832;50.864;12.186;2022-07-23T10:22:07;23.90;92.10
5621;DHT22;2832;50.864;12.186;2022-07-23T10:24:58;23.80;92.40
5621;DHT22;2832;50.864;12.186;2022-07-23T10:27:50;23.80;92.60
5621;DHT22;2832;50.864;12.186;2022-07-23T10:30:32;23.70;92.60
5621;DHT22;2832;50.864;12.186;2022-07-23T10:33:15;23.80;92.50
5621;DHT22;2832;50.864;12.186;2022-07-23T10:35:53;24.00;92.50
5621;DHT22;2832;50.864;12.186;2022-07-23T10:38:27;24.00;92.60
5621;DHT22;2832;50.864;12.186;2022-07-23T10:41:05;24.00;92.50
5621;DHT22;2832;50.864;12.186;2022-07-23T10:43:39;24.00;92.50
5621;DHT22;2832;50.864;12.186;2022-07-23T10:46:23;24.10;92.40
5621;DHT22;2832;50.864;12.186;2022-07-23T10:49:26;24.10;92.40
5621;DHT22;2832;50.864;12.186;2022-07-23T10:52:17;24.10;92.50
5621;DHT22;2832;50.864;12.186;2022-07-23T10:54:46;24.00;92.60
5621;DHT22;2832;50.864;12.186;2022-07-23T10:57:16;24.10;92.60
5621;DHT22;2832;50.864;12.186;2022-07-23T11:02:59;24.10;92.60
5621;DHT22;2832;50.864;12.186;2022-07-23T11:05:41;24.20;92.50
5621;DHT22;2832;50.864;12.186;2022-07-23T11:08:20;24.30;92.40
5621;DHT22;2832;50.864;12.186;2022-07-23T11:10:52;24.50;92.40
5621;DHT22;2832;50.864;12.186;2022-07-23T11:13:37;24.60;92.20
5621;DHT22;2832;50.864;12.186;2022-07-23T11:16:23;24.70;92.00
5621;DHT22;2832;50.864;12.186;2022-07-23T11:19:02;24.70;91.80
5621;DHT22;2832;50.864;12.186;2022-07-23T11:21:50;24.60;92.00
5621;DHT22;2832;50.864;12.186;2022-07-23T11:24:23;24.60;92.30
5621;DHT22;2832;50.864;12.186;2022-07-23T11:26:59;24.50;92.30
5621;DHT22;2832;50.864;12.186;2022-07-23T11:29:43;24.40;92.40
5621;DHT22;2832;50.864;12.186;2022-07-23T11:32:29;24.50;92.50
5621;DHT22;2832;50.864;12.186;2022-07-23T11:34:59;24.60;92.40
5621;DHT22;2832;50.864;12.186;2022-07-23T11:37:32;24.60;92.40
5621;DHT22;2832;50.864;12.186;2022-07-23T11:40:04;24.40;92.50
5621;DHT22;2832;50.864;12.186;2022-07-23T11:42:36;24.40;92.50
5621;DHT22;2832;50.864;12.186;2022-07-23T11:45:06;24.50;92.60
5621;DHT22;2832;50.864;12.186;2022-07-23T11:47:35;24.50;92.50
5621;DHT22;2832;50.864;12.186;2022-07-23T11:50:05;24.60;92.40
5621;DHT22;2832;50.864;12.186;2022-07-23T11:52:34;24.70;92.30
5621;DHT22;2832;50.864;12.186;2022-07-23T11:55:06;24.80;92.30
5621;DHT22;2832;50.864;12.186;2022-07-23T11:57:36;24.70;92.30
5621;DHT22;2832;50.864;12.186;2022-07-23T12:00:09;24.70;92.30
5621;DHT22;2832;50.864;12.186;2022-07-23T12:02:38;24.80;92.20
5621;DHT22;2832;50.864;12.186;2022-07-23T12:05:09;24.30;92.30
5621;DHT22;2832;50.864;12.186;2022-07-23T12:07:41;24.20;92.60
5621;DHT22;2832;50.864;12.186;2022-07-23T12:10:14;24.30;92.80
5621;DHT22;2832;50.864;12.186;2022-07-23T12:12:45;24.30;92.80
5621;DHT22;2832;50.864;12.186;2022-07-23T12:15:18;24.40;92.70
5621;DHT22;2832;50.864;12.186;2022-07-23T12:17:47;24.40;92.70
5621;DHT22;2832;50.864;12.186;2022-07-23T12:20:17;24.50;92.70
5621;DHT22;2832;50.864;12.186;2022-07-23T12:22:48;24.50;92.60
5621;DHT22;2832;50.864;12.186;2022-07-23T12:25:21;24.60;92.60
5621;DHT22;2832;50.864;12.186;2022-07-23T12:28:02;24.60;92.40
5621;DHT22;2832;50.864;12.186;2022-07-23T12:30:33;24.70;92.40
5621;DHT22;2832;50.864;12.186;2022-07-23T12:33:05;24.60;92.40
5621;DHT22;2832;50.864;12.186;2022-07-23T12:35:36;24.60;92.40
5621;DHT22;2832;50.864;12.186;2022-07-23T12:38:08;24.60;92.40
5621;DHT22;2832;50.864;12.186;2022-07-23T12:40:42;24.60;92.40
5621;DHT22;2832;50.864;12.186;2022-07-23T12:43:18;24.70;92.50
5621;DHT22;2832;50.864;12.186;2022-07-23T12:45:51;24.60;92.50
5621;DHT22;2832;50.864;12.186;2022-07-23T12:48:25;24.70;92.50
5621;DHT22;2832;50.864;12.186;2022-07-23T12:50:55;24.80;92.40
5621;DHT22;2832;50.864;12.186;2022-07-23T12:53:26;24.70;92.30
5621;DHT22;2832;50.864;12.186;2022-07-23T12:56:03;24.60;92.40
5621;DHT22;2832;50.864;12.186;2022-07-23T12:58:42;24.60;92.60
5621;DHT22;2832;50.864;12.186;2022-07-23T13:01:23;24.60;92.70
5621;DHT22;2832;50.864;12.186;2022-07-23T13:03:59;24.70;92.60
5621;DHT22;2832;50.864;12.186;2022-07-23T13:06:28;24.70;92.60
5621;DHT22;2832;50.864;12.186;2022-07-23T13:08:58;24.60;92.60
5621;DHT22;2832;50.864;12.186;2022-07-23T13:11:31;24.60;92.70
5621;DHT22;2832;50.864;12.186;2022-07-23T13:14:02;24.60;92.80
5621;DHT22;2832;50.864;12.186;2022-07-23T13:16:32;24.60;92.90
5621;DHT22;2832;50.864;12.186;2022-07-23T13:19:02;24.50;92.90
5621;DHT22;2832;50.864;12.186;2022-07-23T13:21:34;24.60;93.10
5621;DHT22;2832;50.864;12.186;2022-07-23T13:24:01;24.60;93.20
5621;DHT22;2832;50.864;12.186;2022-07-23T13:26:30;24.50;93.20
5621;DHT22;2832;50.864;12.186;2022-07-23T13:28:59;24.50;93.20
5621;DHT22;2832;50.864;12.186;2022-07-23T13:31:26;24.40;93.30
5621;DHT22;2832;50.864;12.186;2022-07-23T13:33:54;24.50;93.40
5621;DHT22;2832;50.864;12.186;2022-07-23T13:36:21;24.50;93.40
5621;DHT22;2832;50.864;12.186;2022-07-23T13:38:49;24.60;93.40
5621;DHT22;2832;50.864;12.186;2022-07-23T13:41:17;24.60;93.60
5621;DHT22;2832;50.864;12.186;2022-07-23T13:43:47;24.60;93.70
5621;DHT22;2832;50.864;12.186;2022-07-23T13:46:14;24.60;93.60
5621;DHT22;2832;50.864;12.186;2022-07-23T13:48:43;24.60;93.50
5621;DHT22;2832;50.864;12.186;2022-07-23T13:51:11;24.60;93.50
5621;DHT22;2832;50.864;12.186;2022-07-23T13:53:39;24.60;93.60
5621;DHT22;2832;50.864;12.186;2022-07-23T13:56:06;24.30;93.80
5621;DHT22;2832;50.864;12.186;2022-07-23T13:58:34;24.20;94.20
5621;DHT22;2832;50.864;12.186;2022-07-23T14:01:03;24.20;94.30
5621;DHT22;2832;50.864;12.186;2022-07-23T14:03:32;24.20;94.40
5621;DHT22;2832;50.864;12.186;2022-07-23T14:05:59;24.30;94.30
5621;DHT22;2832;50.864;12.186;2022-07-23T14:08:27;24.30;94.10
5621;DHT22;2832;50.864;12.186;2022-07-23T14:10:54;24.40;94.00
5621;DHT22;2832;50.864;12.186;2022-07-23T14:13:23;24.30;94.00
5621;DHT22;2832;50.864;12.186;2022-07-23T14:15:51;24.20;94.00
5621;DHT22;2832;50.864;12.186;2022-07-23T14:18:20;24.20;94.30
5621;DHT22;2832;50.864;12.186;2022-07-23T14:20:47;24.10;94.30
5621;DHT22;2832;50.864;12.186;2022-07-23T14:23:15;23.90;94.40
5621;DHT22;2832;50.864;12.186;2022-07-23T14:25:45;24.00;94.40
5621;DHT22;2832;50.864;12.186;2022-07-23T14:28:12;24.10;94.20
5621;DHT22;2832;50.864;12.186;2022-07-23T14:30:40;24.30;93.70
5621;DHT22;2832;50.864;12.186;2022-07-23T14:33:09;24.30;93.50
5621;DHT22;2832;50.864;12.186;2022-07-23T14:35:39;24.30;93.40
5621;DHT22;2832;50.864;12.186;2022-07-23T14:38:07;24.10;93.50
5621;DHT22;2832;50.864;12.186;2022-07-23T14:40:34;24.10;93.50
5621;DHT22;2832;50.864;12.186;2022-07-23T14:43:02;24.10;93.50
5621;DHT22;2832;50.864;12.186;2022-07-23T14:45:30;24.20;93.50
5621;DHT22;2832;50.864;12.186;2022-07-23T14:47:57;24.30;93.30
5621;DHT22;2832;50.864;12.186;2022-07-23T14:50:26;24.30;93.50
5621;DHT22;2832;50.864;12.186;2022-07-23T14:52:55;24.30;93.20
5621;DHT22;2832;50.864;12.186;2022-07-23T14:55:22;24.40;93.20
5621;DHT22;2832;50.864;12.186;2022-07-23T14:57:51;24.40;93.20
5621;DHT22;2832;50.864;12.186;2022-07-23T15:00:18;24.60;93.10
5621;DHT22;2832;50.864;12.186;2022-07-23T15:02:46;24.60;92.60
5621;DHT22;2832;50.864;12.186;2022-07-23T15:05:14;24.70;92.40
5621;DHT22;2832;50.864;12.186;2022-07-23T15:07:41;24.70;92.20
5621;DHT22;2832;50.864;12.186;2022-07-23T15:10:11;24.70;92.20
5621;DHT22;2832;50.864;12.186;2022-07-23T15:12:39;24.80;92.20
5621;DHT22;2832;50.864;12.186;2022-07-23T15:15:07;24.90;91.80
5621;DHT22;2832;50.864;12.186;2022-07-23T18:35:07;26.10;84.50
5621;DHT22;2832;50.864;12.186;2022-07-23T18:37:35;26.10;84.60
5621;DHT22;2832;50.864;12.186;2022-07-23T18:40:03;26.10;83.70
5621;DHT22;2832;50.864;12.186;2022-07-23T18:42:39;26.10;83.30
5621;DHT22;2832;50.864;12.186;2022-07-23T18:45:08;26.10;83.60
5621;DHT22;2832;50.864;12.186;2022-07-23T18:47:37;26.10;82.50
5621;DHT22;2832;50.864;12.186;2022-07-23T18:50:09;26.20;82.40
5621;DHT22;2832;50.864;12.186;2022-07-23T18:52:37;26.20;81.80
5621;DHT22;2832;50.864;12.186;2022-07-23T18:55:06;26.20;81.20
5621;DHT22;2832;50.864;12.186;2022-07-23T18:57:35;26.20;81.60
5621;DHT22;2832;50.864;12.186;2022-07-23T19:00:06;26.20;81.10
5621;DHT22;2832;50.864;12.186;2022-07-23T19:02:34;26.20;80.70
5621;DHT22;2832;50.864;12.186;2022-07-23T19:05:03;26.20;80.50
5621;DHT22;2832;50.864;12.186;2022-07-23T19:07:33;26.20;80.20
5621;DHT22;2832;50.864;12.186;2022-07-23T19:10:00;26.20;80.00
5621;DHT22;2832;50.864;12.186;2022-07-23T19:12:28;26.10;79.90
5621;DHT22;2832;50.864;12.186;2022-07-23T19:14:56;26.10;79.90
5621;DHT22;2832;50.864;12.186;2022-07-23T19:17:23;26.20;80.00
5621;DHT22;2832;50.864;12.186;2022-07-23T19:19:51;26.20;80.20
5621;DHT22;2832;50.864;12.186;2022-07-23T19:22:18;26.20;80.50